Time;durP1;ratioP1;P1;durP2;ratioP2;P2;SDS_P1;SDS_P2;PMS_P1;PMS_P2;Temp;Humidity;BMP_temperature;BMP_pressure;BME280_temperature;BME280_humidity;BME280_pressure;Samples;Min_cycle;Max_cycle;Signal;HPM_P1;HPM_P2
2022/04/29 00:00:07;;;;;;;9.33;8.50;;;;;;;;;;5073241;28;20541;-76
2022/04/29 00:02:34;;;;;;;8.80;8.10;;;;;;;;;;5073013;28;20484;-77
2022/04/29 00:05:01;;;;;;;8.70;7.97;;;;;;;;;;5073089;28;20440;-77
2022/04/29 00:07:28;;;;;;;10.53;9.30;;;;;;;;;;5087706;28;20476;-77
2022/04/29 00:09:55;;;;;;;9.60;8.80;;;;;;;;;;5093512;28;20469;-77
2022/04/29 00:12:22;;;;;;;11.83;10.70;;;;;;;;;;5092519;28;20961;-77
2022/04/29 00:14:50;;;;;;;9.53;8.83;;;;;;;;;;5093717;28;20743;-77
2022/04/29 00:17:17;;;;;;;10.73;9.60;;;;;;;;;;5092522;28;20475;-77
2022/04/29 00:19:45;;;;;;;9.67;8.87;;;;;;;;;;5094270;28;20471;-78
2022/04/29 00:22:12;;;;;;;9.83;9.03;;;;;;;;;;5092796;28;20483;-79
2022/04/29 00:24:39;;;;;;;8.90;8.20;;;;;;;;;;5092808;28;20444;-77
2022/04/29 00:27:07;;;;;;;10.37;9.23;;;;;;;;;;5093370;28;20464;-77
2022/04/29 00:29:34;;;;;;;13.23;8.93;;;;;;;;;;5095044;28;20448;-79
2022/04/29 00:32:02;;;;;;;10.27;9.27;;;;;;;;;;5095049;28;20455;-77
2022/04/29 00:34:29;;;;;;;9.17;8.27;;;;;;;;;;5097983;28;20443;-77
2022/04/29 00:36:56;;;;;;;9.90;9.00;;;;;;;;;;5096440;28;20870;-76
2022/04/29 00:39:24;;;;;;;9.97;8.97;;;;;;;;;;5093376;28;20474;-78
2022/04/29 00:41:51;;;;;;;10.43;9.07;;;;;;;;;;5093741;28;20546;-77
2022/04/29 00:44:18;;;;;;;10.40;9.40;;;;;;;;;;5100172;28;20431;-77
2022/04/29 00:46:46;;;;;;;9.93;9.17;;;;;;;;;;5103722;28;20460;-77
2022/04/29 00:49:15;;;;;;;10.20;9.40;;;;;;;;;;5100469;28;20534;-77
2022/04/29 00:51:43;;;;;;;9.43;8.63;;;;;;;;;;5102797;28;20448;-77
2022/04/29 00:54:13;;;;;;;10.00;9.20;;;;;;;;;;5103547;28;20429;-77
2022/04/29 00:56:44;;;;;;;10.87;9.87;;;;;;;;;;5102386;28;20452;-79
2022/04/29 00:59:15;;;;;;;10.97;10.07;;;;;;;;;;5100985;28;20440;-76
2022/04/29 01:01:44;;;;;;;9.67;8.80;;;;;;;;;;5096612;28;20436;-77
2022/04/29 01:04:13;;;;;;;10.00;9.20;;;;;;;;;;5092203;28;20440;-77
2022/04/29 01:06:41;;;;;;;11.57;9.63;;;;;;;;;;5092154;28;20464;-77
2022/04/29 01:09:08;;;;;;;10.00;9.10;;;;;;;;;;5092145;28;20451;-75
2022/04/29 01:11:37;;;;;;;11.43;10.37;;;;;;;;;;5091669;28;20447;-76
2022/04/29 01:14:04;;;;;;;11.47;10.43;;;;;;;;;;5091687;28;20459;-77
2022/04/29 01:16:32;;;;;;;10.80;9.90;;;;;;;;;;5091735;28;20463;-75
2022/04/29 01:18:59;;;;;;;10.67;9.77;;;;;;;;;;5091313;28;20493;-76
2022/04/29 01:21:27;;;;;;;11.33;10.10;;;;;;;;;;5092866;28;20459;-77
2022/04/29 01:23:56;;;;;;;11.33;10.20;;;;;;;;;;5090641;28;20626;-76
2022/04/29 01:26:23;;;;;;;11.43;10.23;;;;;;;;;;5091490;28;20486;-77
2022/04/29 01:28:50;;;;;;;11.67;10.50;;;;;;;;;;5091427;28;20435;-78
2022/04/29 01:31:17;;;;;;;11.33;10.20;;;;;;;;;;5091415;28;20471;-77
2022/04/29 01:33:46;;;;;;;11.87;10.77;;;;;;;;;;5091629;28;20839;-78
2022/04/29 01:36:13;;;;;;;10.83;9.93;;;;;;;;;;5091752;28;20472;-76
2022/04/29 01:38:40;;;;;;;10.77;9.80;;;;;;;;;;5091525;28;20513;-77
2022/04/29 01:41:09;;;;;;;11.00;10.10;;;;;;;;;;5091808;28;20447;-78
2022/04/29 01:43:36;;;;;;;11.47;10.57;;;;;;;;;;5090495;28;20492;-76
2022/04/29 01:46:04;;;;;;;11.17;10.07;;;;;;;;;;5091006;28;20451;-77
2022/04/29 01:48:31;;;;;;;11.83;10.80;;;;;;;;;;5091397;28;20474;-77
2022/04/29 01:50:58;;;;;;;11.90;10.80;;;;;;;;;;5090989;28;20443;-77
2022/04/29 01:53:25;;;;;;;12.67;11.40;;;;;;;;;;5090914;28;20527;-77
2022/04/29 01:55:52;;;;;;;11.50;10.57;;;;;;;;;;5090313;28;20471;-78
2022/04/29 01:58:20;;;;;;;11.93;10.97;;;;;;;;;;5091264;28;20443;-78
2022/04/29 02:00:47;;;;;;;11.13;10.13;;;;;;;;;;5090541;28;20447;-77
2022/04/29 02:03:14;;;;;;;11.70;10.80;;;;;;;;;;5089848;28;20854;-78
2022/04/29 02:05:41;;;;;;;12.73;11.63;;;;;;;;;;5090618;28;20467;-77
2022/04/29 02:08:09;;;;;;;12.40;11.47;;;;;;;;;;5073223;28;20448;-77
2022/04/29 02:10:37;;;;;;;12.63;11.63;;;;;;;;;;5075437;28;20852;-79
2022/04/29 02:13:04;;;;;;;12.80;11.77;;;;;;;;;;5074310;28;20447;-77
2022/04/29 02:15:33;;;;;;;14.37;13.07;;;;;;;;;;5070507;28;20473;-77
2022/04/29 02:18:00;;;;;;;13.10;11.87;;;;;;;;;;5070890;28;20456;-76
2022/04/29 02:20:27;;;;;;;12.43;11.43;;;;;;;;;;5070289;28;20969;-78
2022/04/29 02:22:54;;;;;;;13.00;11.70;;;;;;;;;;5070062;28;20488;-76
2022/04/29 02:25:21;;;;;;;12.13;11.10;;;;;;;;;;5069794;28;20456;-77
2022/04/29 02:27:48;;;;;;;13.10;11.90;;;;;;;;;;5070047;28;20429;-77
2022/04/29 02:30:15;;;;;;;12.33;11.33;;;;;;;;;;5069890;28;20445;-78
2022/04/29 02:32:44;;;;;;;12.63;11.57;;;;;;;;;;5070027;28;20490;-76
2022/04/29 02:35:11;;;;;;;12.67;11.67;;;;;;;;;;5070158;28;20502;-77
2022/04/29 02:37:38;;;;;;;13.60;12.13;;;;;;;;;;5069615;28;20460;-76
2022/04/29 02:40:06;;;;;;;13.13;11.93;;;;;;;;;;5069671;28;20456;-77
2022/04/29 02:42:33;;;;;;;13.70;12.53;;;;;;;;;;5069296;28;20480;-78
2022/04/29 02:45:00;;;;;;;12.83;11.83;;;;;;;;;;5069649;28;20939;-77
2022/04/29 02:47:27;;;;;;;13.00;11.90;;;;;;;;;;5069820;28;20468;-76
2022/04/29 02:49:56;;;;;;;13.13;12.03;;;;;;;;;;5069703;28;20467;-77
2022/04/29 02:52:23;;;;;;;13.77;12.57;;;;;;;;;;5069781;28;20468;-79
2022/04/29 02:54:50;;;;;;;12.80;11.50;;;;;;;;;;5069388;28;20935;-77
2022/04/29 02:57:17;;;;;;;12.73;11.63;;;;;;;;;;5069836;28;20494;-76
2022/04/29 02:59:44;;;;;;;13.30;12.10;;;;;;;;;;5069965;28;21018;-75
2022/04/29 03:02:11;;;;;;;12.93;11.83;;;;;;;;;;5069780;28;20843;-77
2022/04/29 03:04:39;;;;;;;12.70;11.50;;;;;;;;;;5069245;28;21014;-76
2022/04/29 03:07:07;;;;;;;12.97;11.87;;;;;;;;;;5082198;28;20460;-76
2022/04/29 03:09:34;;;;;;;13.50;12.30;;;;;;;;;;5094054;28;20454;-76
2022/04/29 03:12:01;;;;;;;12.57;11.47;;;;;;;;;;5093727;28;20448;-76
2022/04/29 03:14:29;;;;;;;12.70;11.50;;;;;;;;;;5096668;28;20447;-77
2022/04/29 03:16:56;;;;;;;13.70;12.40;;;;;;;;;;5096780;28;20545;-76
2022/04/29 03:19:23;;;;;;;13.70;12.50;;;;;;;;;;5094055;28;20460;-76
2022/04/29 03:21:50;;;;;;;13.90;12.70;;;;;;;;;;5093364;28;20479;-77
2022/04/29 03:24:19;;;;;;;15.00;13.70;;;;;;;;;;5092905;28;20475;-75
2022/04/29 03:26:46;;;;;;;13.93;12.70;;;;;;;;;;5093898;28;20467;-77
2022/04/29 03:29:13;;;;;;;14.33;13.03;;;;;;;;;;5093297;28;20978;-78
2022/04/29 03:31:40;;;;;;;14.07;12.80;;;;;;;;;;5093393;28;20443;-77
2022/04/29 03:34:07;;;;;;;13.53;12.40;;;;;;;;;;5093793;28;20449;-79
2022/04/29 03:36:34;;;;;;;13.53;12.23;;;;;;;;;;5094587;28;20463;-77
2022/04/29 03:39:02;;;;;;;13.43;12.43;;;;;;;;;;5094555;28;20790;-77
2022/04/29 03:41:30;;;;;;;14.03;12.80;;;;;;;;;;5094736;28;20448;-75
2022/04/29 03:43:57;;;;;;;15.87;14.40;;;;;;;;;;5094274;28;20490;-76
2022/04/29 03:46:24;;;;;;;13.77;12.57;;;;;;;;;;5093350;28;20463;-77
2022/04/29 03:51:37;;;;;;;14.63;13.33;;;;;;;;;;5093560;28;20501;-77
2022/04/29 03:54:04;;;;;;;14.97;13.60;;;;;;;;;;5093864;28;20933;-76
2022/04/29 03:56:32;;;;;;;15.20;13.43;;;;;;;;;;5097241;28;20463;-76
2022/04/29 03:58:59;;;;;;;15.37;14.07;;;;;;;;;;5093631;28;20956;-76
2022/04/29 04:01:27;;;;;;;14.70;13.40;;;;;;;;;;5093814;28;20439;-76
2022/04/29 04:03:54;;;;;;;15.50;13.90;;;;;;;;;;5094895;28;20736;-77
2022/04/29 04:09:06;;;;;;;15.77;14.20;;;;;;;;;;5092474;28;20458;-77
2022/04/29 04:11:36;;;;;;;15.67;14.17;;;;;;;;;;5092429;28;20448;-77
2022/04/29 04:14:03;;;;;;;15.70;14.30;;;;;;;;;;5092211;28;20436;-78
2022/04/29 04:16:30;;;;;;;16.10;14.50;;;;;;;;;;5092135;28;20460;-78
2022/04/29 04:18:57;;;;;;;16.33;14.83;;;;;;;;;;5089506;28;20448;-77
2022/04/29 04:21:24;;;;;;;16.60;14.87;;;;;;;;;;5091760;28;20447;-77
2022/04/29 04:23:53;;;;;;;17.03;15.23;;;;;;;;;;5085212;28;20477;-77
2022/04/29 04:26:20;;;;;;;16.17;14.67;;;;;;;;;;5071460;28;20483;-77
2022/04/29 04:28:48;;;;;;;17.23;15.63;;;;;;;;;;5071338;28;20445;-79
2022/04/29 04:31:15;;;;;;;17.43;15.93;;;;;;;;;;5071663;28;20888;-75
2022/04/29 04:33:42;;;;;;;16.77;15.17;;;;;;;;;;5071146;28;20456;-76
2022/04/29 04:36:10;;;;;;;17.20;15.40;;;;;;;;;;5072023;28;20990;-76
2022/04/29 04:38:37;;;;;;;17.37;15.67;;;;;;;;;;5071662;28;20581;-79
2022/04/29 04:41:07;;;;;;;17.87;16.20;;;;;;;;;;5071888;28;20464;-76
2022/04/29 04:43:35;;;;;;;18.87;16.90;;;;;;;;;;5070851;28;20481;-77
2022/04/29 04:46:06;;;;;;;18.13;15.90;;;;;;;;;;5071556;28;20952;-77
2022/04/29 04:48:33;;;;;;;21.40;19.40;;;;;;;;;;5078681;28;20451;-76
2022/04/29 04:51:01;;;;;;;18.70;17.10;;;;;;;;;;5090290;28;20443;-76
2022/04/29 04:53:28;;;;;;;17.90;16.23;;;;;;;;;;5088347;28;20465;-76
2022/04/29 04:55:55;;;;;;;18.63;16.70;;;;;;;;;;5071428;28;20461;-76
2022/04/29 04:58:23;;;;;;;17.97;16.33;;;;;;;;;;5071950;28;20451;-79
2022/04/29 05:00:50;;;;;;;18.90;17.30;;;;;;;;;;5071583;28;20456;-78
2022/04/29 05:03:18;;;;;;;18.50;16.90;;;;;;;;;;5071856;28;20487;-78
2022/04/29 05:05:45;;;;;;;18.67;17.07;;;;;;;;;;5072159;28;20456;-76
2022/04/29 05:08:12;;;;;;;19.50;17.70;;;;;;;;;;5071656;28;20812;-78
2022/04/29 05:10:39;;;;;;;18.50;16.70;;;;;;;;;;5071374;28;20456;-78
2022/04/29 05:13:07;;;;;;;19.17;17.57;;;;;;;;;;5071681;28;20444;-77
2022/04/29 05:15:34;;;;;;;19.77;17.93;;;;;;;;;;5071562;28;20940;-76
2022/04/29 05:18:01;;;;;;;19.30;17.27;;;;;;;;;;5071929;28;20476;-77
2022/04/29 05:20:29;;;;;;;18.93;16.93;;;;;;;;;;5070903;28;20936;-76
2022/04/29 05:22:56;;;;;;;18.73;16.83;;;;;;;;;;5070648;28;20452;-78
2022/04/29 05:25:23;;;;;;;20.13;17.93;;;;;;;;;;5071326;28;20444;-77
2022/04/29 05:27:50;;;;;;;19.77;17.00;;;;;;;;;;5071405;28;20445;-78
2022/04/29 05:30:17;;;;;;;24.93;19.70;;;;;;;;;;5070677;28;20862;-78
2022/04/29 05:32:45;;;;;;;20.73;18.40;;;;;;;;;;5071221;28;20942;-77
2022/04/29 05:35:12;;;;;;;20.30;18.40;;;;;;;;;;5071013;28;20436;-76
2022/04/29 05:37:41;;;;;;;20.03;18.00;;;;;;;;;;5071192;28;20836;-78
2022/04/29 05:42:54;;;;;;;21.13;18.90;;;;;;;;;;5070962;28;20428;-78
2022/04/29 05:45:21;;;;;;;20.30;18.50;;;;;;;;;;5070936;28;20492;-77
2022/04/29 05:47:48;;;;;;;21.80;19.73;;;;;;;;;;5071087;28;20457;-77
2022/04/29 05:50:15;;;;;;;20.60;18.60;;;;;;;;;;5070478;28;20459;-77
2022/04/29 05:52:43;;;;;;;20.53;18.63;;;;;;;;;;5070618;28;20920;-77
2022/04/29 05:55:11;;;;;;;20.27;18.37;;;;;;;;;;5071028;28;20456;-77
2022/04/29 05:57:38;;;;;;;20.97;18.63;;;;;;;;;;5070600;28;20484;-77
2022/04/29 06:00:06;;;;;;;19.50;17.50;;;;;;;;;;5070793;28;20559;-77
2022/04/29 06:02:35;;;;;;;19.60;17.90;;;;;;;;;;5090238;28;20436;-77
2022/04/29 06:05:02;;;;;;;20.00;18.00;;;;;;;;;;5074471;28;20593;-76
2022/04/29 06:07:29;;;;;;;18.87;17.27;;;;;;;;;;5090314;28;20521;-76
2022/04/29 06:09:58;;;;;;;19.03;17.10;;;;;;;;;;5075175;28;20460;-77
2022/04/29 06:12:26;;;;;;;19.30;16.73;;;;;;;;;;5088688;28;20788;-77
2022/04/29 06:14:53;;;;;;;19.40;17.47;;;;;;;;;;5090420;28;20954;-77
2022/04/29 06:17:21;;;;;;;24.67;17.17;;;;;;;;;;5090516;28;20464;-77
2022/04/29 06:19:48;;;;;;;20.23;18.30;;;;;;;;;;5090773;28;20448;-77
2022/04/29 06:22:15;;;;;;;19.00;17.33;;;;;;;;;;5091456;28;20448;-76
2022/04/29 06:24:44;;;;;;;20.03;18.13;;;;;;;;;;5090468;28;20978;-77
2022/04/29 06:27:12;;;;;;;19.03;17.37;;;;;;;;;;5090758;28;20757;-76
2022/04/29 06:29:39;;;;;;;19.27;17.47;;;;;;;;;;5083040;28;20448;-76
2022/04/29 06:32:07;;;;;;;20.53;16.90;;;;;;;;;;5082440;28;20796;-76
2022/04/29 06:34:34;;;;;;;19.70;17.87;;;;;;;;;;5074547;28;20440;-76
2022/04/29 06:37:01;;;;;;;18.53;16.87;;;;;;;;;;5093633;28;20486;-75
2022/04/29 06:39:28;;;;;;;21.07;17.90;;;;;;;;;;5092692;28;20447;-76
2022/04/29 06:41:55;;;;;;;18.40;16.57;;;;;;;;;;5091693;28;20501;-76
2022/04/29 06:44:24;;;;;;;20.03;17.97;;;;;;;;;;5094743;28;20498;-77
2022/04/29 06:46:51;;;;;;;18.13;16.30;;;;;;;;;;5094959;28;20459;-76
2022/04/29 06:49:18;;;;;;;21.83;17.80;;;;;;;;;;5084294;28;20448;-76
2022/04/29 06:51:45;;;;;;;20.50;18.60;;;;;;;;;;5092711;28;21137;-77
2022/04/29 06:54:12;;;;;;;17.80;16.20;;;;;;;;;;5091999;28;20467;-76
2022/04/29 06:56:39;;;;;;;19.13;17.13;;;;;;;;;;5094748;28;20471;-75
2022/04/29 06:59:06;;;;;;;17.33;15.93;;;;;;;;;;5103250;28;20447;-77
2022/04/29 07:01:35;;;;;;;18.33;16.30;;;;;;;;;;5101433;28;20517;-76
2022/04/29 07:04:02;;;;;;;17.97;16.17;;;;;;;;;;5097061;28;20471;-77
2022/04/29 07:06:29;;;;;;;16.20;14.80;;;;;;;;;;5092197;28;20472;-75
2022/04/29 07:08:56;;;;;;;18.00;16.23;;;;;;;;;;5092884;28;20447;-77
2022/04/29 07:11:25;;;;;;;17.13;15.73;;;;;;;;;;5075246;28;20459;-77
2022/04/29 07:13:52;;;;;;;18.03;16.43;;;;;;;;;;5077651;28;20538;-76
2022/04/29 07:16:19;;;;;;;19.20;17.23;;;;;;;;;;5093191;28;20547;-77
2022/04/29 07:18:48;;;;;;;18.17;16.30;;;;;;;;;;5082813;28;20534;-77
2022/04/29 07:21:15;;;;;;;16.67;15.20;;;;;;;;;;5093654;28;20822;-76
2022/04/29 07:23:42;;;;;;;17.80;16.23;;;;;;;;;;5092067;28;20547;-77
2022/04/29 07:26:09;;;;;;;16.47;14.80;;;;;;;;;;5094631;28;20829;-76
2022/04/29 07:28:36;;;;;;;17.20;15.53;;;;;;;;;;5073350;28;20526;-77
2022/04/29 07:31:03;;;;;;;17.97;16.17;;;;;;;;;;5073841;28;20498;-77
2022/04/29 07:33:30;;;;;;;18.27;16.37;;;;;;;;;;5083252;28;20474;-76
2022/04/29 07:41:46;;;;;;;17.73;15.87;;;;;;;;;;5073352;28;20460;-77
2022/04/29 07:44:14;;;;;;;19.40;15.20;;;;;;;;;;5073671;28;20534;-77
2022/04/29 07:46:43;;;;;;;15.07;13.73;;;;;;;;;;5073093;28;20476;-77
2022/04/29 07:49:10;;;;;;;15.83;14.33;;;;;;;;;;5073078;28;20863;-77
2022/04/29 07:51:39;;;;;;;16.13;14.60;;;;;;;;;;5072892;28;20441;-78
2022/04/29 07:54:07;;;;;;;16.60;15.13;;;;;;;;;;5071800;28;20449;-75
2022/04/29 07:56:34;;;;;;;15.60;14.20;;;;;;;;;;5072701;28;20479;-77
2022/04/29 07:59:02;;;;;;;17.37;14.87;;;;;;;;;;5072578;28;21118;-77
2022/04/29 08:01:29;;;;;;;16.27;14.60;;;;;;;;;;5072185;28;20446;-76
2022/04/29 08:03:56;;;;;;;18.03;14.80;;;;;;;;;;5072459;28;20556;-76
2022/04/29 08:06:24;;;;;;;14.67;13.30;;;;;;;;;;5086277;28;20546;-76
2022/04/29 08:08:52;;;;;;;15.23;13.20;;;;;;;;;;5093274;28;20454;-79
2022/04/29 08:11:19;;;;;;;15.00;13.50;;;;;;;;;;5093085;28;20448;-77
2022/04/29 08:13:47;;;;;;;13.00;11.77;;;;;;;;;;5092101;28;20969;-77
2022/04/29 08:16:15;;;;;;;13.90;12.70;;;;;;;;;;5092881;28;20460;-78
2022/04/29 08:18:42;;;;;;;14.00;12.73;;;;;;;;;;5093157;28;20447;-76
2022/04/29 08:21:09;;;;;;;13.83;12.40;;;;;;;;;;5092924;28;20526;-77
2022/04/29 08:23:36;;;;;;;14.37;12.30;;;;;;;;;;5092629;28;20479;-77
2022/04/29 08:26:05;;;;;;;14.03;12.70;;;;;;;;;;5092323;28;20518;-76
2022/04/29 08:28:32;;;;;;;14.27;13.07;;;;;;;;;;5098873;28;20829;-76
2022/04/29 08:30:59;;;;;;;18.87;14.43;;;;;;;;;;5096662;28;20456;-77
2022/04/29 08:33:26;;;;;;;13.63;12.20;;;;;;;;;;5101253;28;20440;-78
2022/04/29 08:35:54;;;;;;;13.60;12.30;;;;;;;;;;5097398;28;20890;-76
2022/04/29 08:38:21;;;;;;;13.37;12.03;;;;;;;;;;5100917;28;20428;-76
2022/04/29 08:40:48;;;;;;;13.37;12.07;;;;;;;;;;5093115;28;20444;-78
2022/04/29 08:43:19;;;;;;;12.50;11.20;;;;;;;;;;5081470;28;20434;-75
2022/04/29 08:45:46;;;;;;;12.10;11.00;;;;;;;;;;5071652;28;20316;-77
2022/04/29 08:48:13;;;;;;;12.20;11.10;;;;;;;;;;5079948;28;20440;-76
2022/04/29 08:50:40;;;;;;;12.53;11.40;;;;;;;;;;5071563;28;20877;-76
2022/04/29 08:53:07;;;;;;;15.23;11.80;;;;;;;;;;5071520;28;20935;-76
2022/04/29 08:58:39;;;;;;;11.83;10.60;;;;;;;;;;5072360;28;20958;-76
2022/04/29 09:01:08;;;;;;;10.57;9.67;;;;;;;;;;5071953;28;20448;-76
2022/04/29 09:03:36;;;;;;;11.50;10.40;;;;;;;;;;5071644;28;20445;-76
2022/04/29 09:06:04;;;;;;;11.27;10.20;;;;;;;;;;5071119;28;20502;-76
2022/04/29 09:08:33;;;;;;;10.87;9.97;;;;;;;;;;5072136;28;20454;-77
2022/04/29 09:11:02;;;;;;;11.07;10.17;;;;;;;;;;5072823;28;20452;-75
2022/04/29 09:13:31;;;;;;;10.13;9.23;;;;;;;;;;5073649;28;20475;-75
2022/04/29 09:16:00;;;;;;;10.20;9.30;;;;;;;;;;5072981;28;20472;-76
2022/04/29 09:18:32;;;;;;;11.47;10.27;;;;;;;;;;5072171;28;20480;-75
2022/04/29 09:20:59;;;;;;;9.63;8.80;;;;;;;;;;5071762;28;20452;-79
2022/04/29 09:23:27;;;;;;;9.50;8.63;;;;;;;;;;5071851;28;20448;-75
2022/04/29 09:25:56;;;;;;;9.00;8.30;;;;;;;;;;5071063;28;20988;-76
2022/04/29 09:28:23;;;;;;;9.53;8.73;;;;;;;;;;5070915;28;20817;-76
2022/04/29 09:30:54;;;;;;;9.20;8.30;;;;;;;;;;5070865;28;20494;-76
2022/04/29 09:33:22;;;;;;;8.50;7.80;;;;;;;;;;5070486;28;20444;-77
2022/04/29 09:35:50;;;;;;;9.13;8.00;;;;;;;;;;5070793;28;20549;-79
2022/04/29 09:41:03;;;;;;;8.00;7.27;;;;;;;;;;5070849;28;21254;-78
2022/04/29 09:43:34;;;;;;;9.90;8.10;;;;;;;;;;5070927;28;20444;-77
2022/04/29 09:46:12;;;;;;;9.93;8.03;;;;;;;;;;5070732;28;20550;-76
2022/04/29 09:48:55;;;;;;;7.83;7.13;;;;;;;;;;5073286;28;20440;-75
2022/04/29 09:51:43;;;;;;;8.37;7.60;;;;;;;;;;5073749;28;20552;-76
2022/04/29 09:54:16;;;;;;;7.17;6.57;;;;;;;;;;5064655;28;20452;-76
2022/04/29 09:56:43;;;;;;;6.87;6.17;;;;;;;;;;5070494;28;20515;-75
2022/04/29 09:59:10;;;;;;;7.17;6.67;;;;;;;;;;5070862;28;20445;-76
2022/04/29 10:01:40;;;;;;;7.37;6.67;;;;;;;;;;5070773;28;20453;-76
2022/04/29 10:04:07;;;;;;;6.83;6.33;;;;;;;;;;5074333;28;20550;-75
2022/04/29 10:06:35;;;;;;;6.73;6.20;;;;;;;;;;5087317;28;20455;-77
2022/04/29 10:09:02;;;;;;;6.93;6.43;;;;;;;;;;5091992;28;20880;-76
2022/04/29 10:11:30;;;;;;;6.70;6.10;;;;;;;;;;5094250;28;20448;-76
2022/04/29 10:14:01;;;;;;;6.10;5.60;;;;;;;;;;5092533;28;20450;-77
2022/04/29 10:16:29;;;;;;;6.70;6.10;;;;;;;;;;5090117;28;20463;-77
2022/04/29 10:21:48;;;;;;;6.40;5.80;;;;;;;;;;5091025;28;20470;-76
2022/04/29 10:24:15;;;;;;;6.73;6.00;;;;;;;;;;5090438;28;20444;-77
2022/04/29 10:26:42;;;;;;;6.47;5.97;;;;;;;;;;5090527;28;20483;-77
2022/04/29 10:29:09;;;;;;;6.37;5.80;;;;;;;;;;5090792;28;20889;-76
2022/04/29 10:31:36;;;;;;;5.63;5.13;;;;;;;;;;5090907;28;20475;-77
2022/04/29 10:34:22;;;;;;;5.50;5.00;;;;;;;;;;5090790;28;20447;-76
2022/04/29 10:36:51;;;;;;;4.97;4.57;;;;;;;;;;5090567;28;20460;-77
2022/04/29 10:39:19;;;;;;;4.60;4.30;;;;;;;;;;5091510;28;20436;-77
2022/04/29 10:41:58;;;;;;;5.47;5.03;;;;;;;;;;5092893;28;20448;-76
2022/04/29 10:44:25;;;;;;;5.50;5.00;;;;;;;;;;5093238;28;20444;-76
2022/04/29 10:46:52;;;;;;;4.90;4.57;;;;;;;;;;5091921;28;20541;-77
2022/04/29 10:49:23;;;;;;;7.20;4.30;;;;;;;;;;5090682;28;20450;-76
2022/04/29 10:51:52;;;;;;;4.97;4.47;;;;;;;;;;5089779;28;20448;-76
2022/04/29 10:54:38;;;;;;;5.07;4.67;;;;;;;;;;5089575;28;20264;-77
2022/04/29 10:57:07;;;;;;;4.55;4.25;;;;;;;;;;5089409;28;20498;-76
2022/04/29 10:59:49;;;;;;;4.07;3.77;;;;;;;;;;5090408;28;20208;-76
2022/04/29 11:02:24;;;;;;;4.93;4.53;;;;;;;;;;5090987;28;20530;-75
2022/04/29 11:04:51;;;;;;;5.63;4.80;;;;;;;;;;5089816;28;20433;-77
2022/04/29 11:07:35;;;;;;;4.70;4.43;;;;;;;;;;5090506;28;20441;-76
2022/04/29 11:10:02;;;;;;;4.90;4.53;;;;;;;;;;5089989;28;21029;-76
2022/04/29 11:12:30;;;;;;;4.13;3.90;;;;;;;;;;5089714;28;20443;-76
2022/04/29 11:15:10;;;;;;;5.13;4.07;;;;;;;;;;5090003;28;20614;-77
2022/04/29 11:17:38;;;;;;;4.47;4.10;;;;;;;;;;5089960;28;20502;-76
2022/04/29 11:20:29;;;;;;;5.43;4.27;;;;;;;;;;5089575;28;20500;-77
2022/04/29 11:25:53;;;;;;;4.50;4.10;;;;;;;;;;5089677;28;20947;-76
2022/04/29 11:28:21;;;;;;;4.80;4.40;;;;;;;;;;5090950;28;20930;-77
2022/04/29 11:30:48;;;;;;;12.93;4.87;;;;;;;;;;5093807;28;20448;-76
2022/04/29 11:33:15;;;;;;;4.80;4.40;;;;;;;;;;5093232;28;20447;-77
2022/04/29 11:35:43;;;;;;;5.60;4.70;;;;;;;;;;5093695;28;20466;-77
2022/04/29 11:38:12;;;;;;;4.70;4.30;;;;;;;;;;5092736;28;20824;-76
2022/04/29 11:40:40;;;;;;;4.60;4.30;;;;;;;;;;5092171;28;20428;-75
2022/04/29 11:43:10;;;;;;;4.30;4.10;;;;;;;;;;5092834;28;20680;-76
2022/04/29 11:45:38;;;;;;;4.50;4.10;;;;;;;;;;5093178;28;20510;-76
2022/04/29 11:48:05;;;;;;;4.00;3.70;;;;;;;;;;5093233;28;20490;-75
2022/04/29 11:50:32;;;;;;;6.07;5.47;;;;;;;;;;5093070;28;20436;-76
2022/04/29 11:53:09;;;;;;;4.20;3.90;;;;;;;;;;5093025;28;20443;-76
2022/04/29 11:55:38;;;;;;;4.30;4.00;;;;;;;;;;5093509;28;20444;-75
2022/04/29 11:58:05;;;;;;;3.83;3.53;;;;;;;;;;5093090;28;20451;-75
2022/04/29 12:00:34;;;;;;;4.07;3.77;;;;;;;;;;5093465;28;20451;-76
2022/04/29 12:03:03;;;;;;;3.57;3.37;;;;;;;;;;5092453;28;20454;-75
2022/04/29 12:05:31;;;;;;;4.40;4.00;;;;;;;;;;5092173;28;20449;-76
2022/04/29 12:08:00;;;;;;;4.53;4.23;;;;;;;;;;5092685;28;20205;-76
2022/04/29 12:10:28;;;;;;;4.50;4.20;;;;;;;;;;5092584;28;20479;-76
2022/04/29 12:12:57;;;;;;;4.70;4.20;;;;;;;;;;5092143;28;20428;-76
2022/04/29 12:15:26;;;;;;;5.23;4.87;;;;;;;;;;5092714;28;20251;-75
2022/04/29 12:17:57;;;;;;;4.55;4.25;;;;;;;;;;5092621;28;20476;-75
2022/04/29 12:20:24;;;;;;;4.97;4.57;;;;;;;;;;5092718;28;20193;-75
2022/04/29 12:22:52;;;;;;;4.27;3.97;;;;;;;;;;5092466;28;20448;-75
2022/04/29 12:25:23;;;;;;;6.57;4.10;;;;;;;;;;5092450;28;20464;-76
2022/04/29 12:28:05;;;;;;;4.93;4.53;;;;;;;;;;5092477;28;20439;-76
2022/04/29 12:36:08;;;;;;;3.77;3.47;;;;;;;;;;5092930;28;20450;-76
2022/04/29 12:38:35;;;;;;;4.37;4.17;;;;;;;;;;5092309;28;20514;-75
2022/04/29 12:41:23;;;;;;;4.53;4.23;;;;;;;;;;5092410;28;20447;-74
2022/04/29 12:43:50;;;;;;;4.60;4.30;;;;;;;;;;5092836;28;20447;-76
2022/04/29 12:46:19;;;;;;;4.10;3.80;;;;;;;;;;5091970;28;20558;-75
2022/04/29 12:48:48;;;;;;;4.53;4.23;;;;;;;;;;5092295;28;20439;-75
2022/04/29 12:51:28;;;;;;;4.50;4.20;;;;;;;;;;5091249;28;20432;-76
2022/04/29 12:53:56;;;;;;;4.80;4.50;;;;;;;;;;5094659;28;20202;-75
2022/04/29 12:56:23;;;;;;;4.93;4.43;;;;;;;;;;5097333;28;20508;-74
2022/04/29 12:58:50;;;;;;;5.20;4.90;;;;;;;;;;5093782;28;20435;-75
2022/04/29 13:01:19;;;;;;;5.53;5.00;;;;;;;;;;5091856;28;20513;-75
2022/04/29 13:03:50;;;;;;;4.63;4.33;;;;;;;;;;5091875;28;20452;-76
2022/04/29 13:06:20;;;;;;;5.00;4.60;;;;;;;;;;5090849;28;20828;-76
2022/04/29 13:08:48;;;;;;;4.90;4.60;;;;;;;;;;5092966;28;20479;-76
2022/04/29 13:11:16;;;;;;;8.10;5.30;;;;;;;;;;5094452;28;20206;-74
2022/04/29 13:13:43;;;;;;;4.80;4.40;;;;;;;;;;5092954;28;20478;-76
2022/04/29 13:16:10;;;;;;;4.50;4.17;;;;;;;;;;5097975;28;20471;-75
2022/04/29 13:18:38;;;;;;;4.45;4.15;;;;;;;;;;5100326;28;20432;-75
2022/04/29 13:21:08;;;;;;;4.70;4.33;;;;;;;;;;5095649;28;20250;-76
2022/04/29 13:23:35;;;;;;;4.40;4.10;;;;;;;;;;5091321;28;20475;-77
2022/04/29 13:26:03;;;;;;;4.40;4.00;;;;;;;;;;5091194;28;20552;-76
2022/04/29 13:28:31;;;;;;;3.83;3.53;;;;;;;;;;5091508;28;20440;-76
2022/04/29 13:30:58;;;;;;;3.83;3.53;;;;;;;;;;5091610;28;20927;-77
2022/04/29 13:33:25;;;;;;;3.60;3.40;;;;;;;;;;5091031;28;20447;-75
2022/04/29 13:35:54;;;;;;;3.47;3.23;;;;;;;;;;5091139;28;20481;-78
2022/04/29 13:38:22;;;;;;;4.40;4.00;;;;;;;;;;5091177;28;20440;-77
2022/04/29 13:40:49;;;;;;;3.60;3.40;;;;;;;;;;5091141;28;20444;-76
2022/04/29 13:43:16;;;;;;;4.00;3.70;;;;;;;;;;5090489;28;20448;-76
2022/04/29 13:45:45;;;;;;;4.03;3.80;;;;;;;;;;5091129;28;20475;-77
2022/04/29 13:48:14;;;;;;;4.40;4.10;;;;;;;;;;5090984;28;20547;-76
2022/04/29 13:50:42;;;;;;;4.10;3.83;;;;;;;;;;5090481;28;20447;-76
2022/04/29 13:53:11;;;;;;;4.77;4.27;;;;;;;;;;5090942;28;20444;-76
2022/04/29 13:55:39;;;;;;;4.30;4.00;;;;;;;;;;5090818;28;20625;-76
2022/04/29 13:58:07;;;;;;;4.30;4.00;;;;;;;;;;5091074;28;20436;-76
2022/04/29 14:00:34;;;;;;;3.87;3.60;;;;;;;;;;5090869;28;20526;-78
2022/04/29 14:03:01;;;;;;;3.47;3.23;;;;;;;;;;5090575;28;20443;-76
2022/04/29 14:05:29;;;;;;;4.43;4.10;;;;;;;;;;5090459;28;20797;-76
2022/04/29 14:07:56;;;;;;;3.93;3.60;;;;;;;;;;5090681;28;20475;-77
2022/04/29 14:10:25;;;;;;;4.50;4.10;;;;;;;;;;5090366;28;20459;-77
2022/04/29 14:12:52;;;;;;;3.77;3.47;;;;;;;;;;5090520;28;20474;-76
2022/04/29 14:15:19;;;;;;;4.43;3.80;;;;;;;;;;5090628;28;20786;-76
2022/04/29 14:17:46;;;;;;;3.90;3.60;;;;;;;;;;5090665;28;20467;-77
2022/04/29 14:20:14;;;;;;;4.00;3.70;;;;;;;;;;5090604;28;20951;-75
2022/04/29 14:22:41;;;;;;;4.40;4.10;;;;;;;;;;5090844;28;20448;-76
2022/04/29 14:25:09;;;;;;;4.10;3.90;;;;;;;;;;5091993;28;20824;-76
2022/04/29 14:27:37;;;;;;;3.90;3.60;;;;;;;;;;5090866;28;20560;-76
2022/04/29 14:30:04;;;;;;;3.80;3.60;;;;;;;;;;5090063;28;20944;-76
2022/04/29 14:32:33;;;;;;;3.87;3.57;;;;;;;;;;5090125;28;20970;-76
2022/04/29 14:35:01;;;;;;;3.97;3.77;;;;;;;;;;5090230;28;20448;-75
2022/04/29 14:37:29;;;;;;;3.77;3.47;;;;;;;;;;5090133;28;20460;-75
2022/04/29 14:39:56;;;;;;;4.47;3.70;;;;;;;;;;5090641;28;20527;-76
2022/04/29 14:42:24;;;;;;;4.47;4.07;;;;;;;;;;5090534;28;20914;-76
2022/04/29 14:44:52;;;;;;;4.23;3.93;;;;;;;;;;5090298;28;20443;-75
2022/04/29 14:47:20;;;;;;;4.95;4.65;;;;;;;;;;5090160;28;20501;-75
2022/04/29 14:49:47;;;;;;;4.27;3.93;;;;;;;;;;5090209;28;20201;-75
2022/04/29 14:52:15;;;;;;;4.43;4.13;;;;;;;;;;5090595;28;20910;-77
2022/04/29 14:54:42;;;;;;;3.77;3.50;;;;;;;;;;5090232;28;20451;-76
2022/04/29 14:57:09;;;;;;;4.53;4.23;;;;;;;;;;5090085;28;20894;-76
2022/04/29 14:59:36;;;;;;;4.00;3.70;;;;;;;;;;5090342;28;20451;-75
2022/04/29 15:02:05;;;;;;;4.40;4.10;;;;;;;;;;5090287;28;20447;-77
2022/04/29 15:04:32;;;;;;;4.10;3.90;;;;;;;;;;5093835;28;20443;-76